Airfield :
LOGIN :

Register | Disclaimer

   EN    FR    IT 

 










Legend :    VFR   Marginal VFR   IFR   Intensive IFR   Very Intensive IFR
Visi :
Ceiling :
>= 8 km
>= 3000ft
5 to 8 km
1000 to 3000 ft
1500m to 5 km
500 to 1000 ft
800 to 1500m
200 to 500 ft
< 800m
< 200 ft
Symbols :   Thunderstorms  Fog  Heavy snow  Heavy precipitations  Wind > 20 kt
SIGMETs :     Misc.  Thunderstorms  Icing  Turbulence  Mountain Waves  Volcanic Ashes







- Airport Elevation : 821 ft
- IATA code : LYS
- Download approach charts


LFLL - Lyon St Exupéry / Satolas

CURRENT METAR :
  • 192200Z 00000KT CAVOK 22/14 Q1020 NOSIG

EXPIRED METARs :
  • 192130Z VRB01KT CAVOK 22/14 Q1020 NOSIG
  • 192100Z VRB02KT CAVOK 23/14 Q1020 NOSIG
  • 192030Z 02004KT 340V040 CAVOK 23/13 Q1020 NOSIG
  • 192000Z 05005KT 360V080 CAVOK 24/13 Q1020 NOSIG
  • 191930Z 04005KT 360V060 CAVOK 25/13 Q1020 NOSIG

TAF TAF LFLL
Valid from the 19 at 18:00 until the 21 at 00:00 UTC


191700Z 1918/2024 36005KT CAVOK
BECMG 2018/2021 16006KT
No reported NOTAMs for that airfield.



MET'MAP, your aeronautical weather chart ! - Copyright ORBIFLY December 2007 - Disclaimer

ORBIFLY MET'MAP TEAM :

Programming & Development : Alexandra Zaïnal
Concept & Development : Baudouin d'Aumeries
Co-Development & Prog : Marc-Olivier Méhu
Technical & hardware support : Manuel Goepfert

Contact : metmap@orbifly.com




SOURCES & CREDITS :

   NOAA